sensor_id;sensor_type;location;lat;lon;timestamp;P1;durP1;ratioP1;P2;durP2;ratioP2
2562;SDS011;1291;51.420;6.970;2022-11-27T00:01:18;5.60;;;2.83;;
2562;SDS011;1291;51.420;6.970;2022-11-27T00:03:45;10.30;;;3.33;;
2562;SDS011;1291;51.420;6.970;2022-11-27T00:06:11;13.90;;;3.77;;
2562;SDS011;1291;51.420;6.970;2022-11-27T00:08:39;9.87;;;2.90;;
2562;SDS011;1291;51.420;6.970;2022-11-27T00:11:06;9.07;;;3.23;;
2562;SDS011;1291;51.420;6.970;2022-11-27T00:13:33;9.27;;;3.67;;
2562;SDS011;1291;51.420;6.970;2022-11-27T00:15:59;7.87;;;3.17;;
2562;SDS011;1291;51.420;6.970;2022-11-27T00:18:26;9.27;;;2.83;;
2562;SDS011;1291;51.420;6.970;2022-11-27T00:20:52;9.33;;;2.97;;
2562;SDS011;1291;51.420;6.970;2022-11-27T00:23:18;10.33;;;3.20;;
2562;SDS011;1291;51.420;6.970;2022-11-27T00:25:50;11.17;;;2.90;;
2562;SDS011;1291;51.420;6.970;2022-11-27T00:28:16;12.10;;;2.97;;
2562;SDS011;1291;51.420;6.970;2022-11-27T00:30:42;5.47;;;2.73;;
2562;SDS011;1291;51.420;6.970;2022-11-27T00:33:07;7.63;;;2.97;;
2562;SDS011;1291;51.420;6.970;2022-11-27T00:35:32;7.77;;;2.67;;
2562;SDS011;1291;51.420;6.970;2022-11-27T00:37:58;7.67;;;2.90;;
2562;SDS011;1291;51.420;6.970;2022-11-27T00:40:23;7.70;;;2.97;;
2562;SDS011;1291;51.420;6.970;2022-11-27T00:42:48;9.13;;;3.73;;
2562;SDS011;1291;51.420;6.970;2022-11-27T00:45:14;6.77;;;2.77;;
2562;SDS011;1291;51.420;6.970;2022-11-27T00:47:39;8.20;;;3.07;;
2562;SDS011;1291;51.420;6.970;2022-11-27T00:50:06;7.80;;;2.90;;
2562;SDS011;1291;51.420;6.970;2022-11-27T00:52:31;6.57;;;3.17;;
2562;SDS011;1291;51.420;6.970;2022-11-27T00:54:57;6.67;;;3.13;;
2562;SDS011;1291;51.420;6.970;2022-11-27T00:57:22;9.57;;;3.00;;
2562;SDS011;1291;51.420;6.970;2022-11-27T00:59:49;6.57;;;3.53;;
2562;SDS011;1291;51.420;6.970;2022-11-27T01:02:14;9.93;;;3.20;;
2562;SDS011;1291;51.420;6.970;2022-11-27T01:04:40;9.07;;;3.27;;
2562;SDS011;1291;51.420;6.970;2022-11-27T01:07:05;8.43;;;3.00;;
2562;SDS011;1291;51.420;6.970;2022-11-27T01:09:30;8.80;;;2.90;;
2562;SDS011;1291;51.420;6.970;2022-11-27T01:11:55;10.87;;;3.80;;
2562;SDS011;1291;51.420;6.970;2022-11-27T01:14:21;9.27;;;2.67;;
2562;SDS011;1291;51.420;6.970;2022-11-27T01:16:46;9.77;;;3.13;;
2562;SDS011;1291;51.420;6.970;2022-11-27T01:19:12;6.47;;;3.50;;
2562;SDS011;1291;51.420;6.970;2022-11-27T01:21:39;8.80;;;3.23;;
2562;SDS011;1291;51.420;6.970;2022-11-27T01:24:07;7.47;;;3.13;;
2562;SDS011;1291;51.420;6.970;2022-11-27T01:26:32;11.13;;;2.90;;
2562;SDS011;1291;51.420;6.970;2022-11-27T01:28:58;5.03;;;3.10;;
2562;SDS011;1291;51.420;6.970;2022-11-27T01:31:26;9.27;;;3.27;;
2562;SDS011;1291;51.420;6.970;2022-11-27T01:33:55;8.07;;;2.67;;
2562;SDS011;1291;51.420;6.970;2022-11-27T01:36:25;8.17;;;2.90;;
2562;SDS011;1291;51.420;6.970;2022-11-27T01:38:51;7.93;;;3.00;;
2562;SDS011;1291;51.420;6.970;2022-11-27T01:41:20;4.73;;;2.57;;
2562;SDS011;1291;51.420;6.970;2022-11-27T01:47:01;9.10;;;2.60;;
2562;SDS011;1291;51.420;6.970;2022-11-27T01:49:33;9.20;;;3.30;;
2562;SDS011;1291;51.420;6.970;2022-11-27T01:52:04;6.53;;;3.03;;
2562;SDS011;1291;51.420;6.970;2022-11-27T01:54:38;6.60;;;3.07;;
2562;SDS011;1291;51.420;6.970;2022-11-27T01:57:14;10.57;;;3.27;;
2562;SDS011;1291;51.420;6.970;2022-11-27T01:59:42;7.97;;;3.07;;
2562;SDS011;1291;51.420;6.970;2022-11-27T02:02:12;7.67;;;3.33;;
2562;SDS011;1291;51.420;6.970;2022-11-27T02:04:37;7.83;;;3.30;;
2562;SDS011;1291;51.420;6.970;2022-11-27T02:07:03;8.67;;;3.17;;
2562;SDS011;1291;51.420;6.970;2022-11-27T02:09:29;8.23;;;3.43;;
2562;SDS011;1291;51.420;6.970;2022-11-27T02:12:05;6.23;;;3.07;;
2562;SDS011;1291;51.420;6.970;2022-11-27T02:34:27;8.97;;;4.10;;
2562;SDS011;1291;51.420;6.970;2022-11-27T02:42:37;8.47;;;3.50;;
2562;SDS011;1291;51.420;6.970;2022-11-27T02:45:08;8.13;;;3.60;;
2562;SDS011;1291;51.420;6.970;2022-11-27T02:47:41;7.60;;;4.30;;
2562;SDS011;1291;51.420;6.970;2022-11-27T02:50:11;8.13;;;4.20;;
2562;SDS011;1291;51.420;6.970;2022-11-27T02:52:40;6.63;;;3.47;;
2562;SDS011;1291;51.420;6.970;2022-11-27T02:55:10;9.43;;;4.33;;
2562;SDS011;1291;51.420;6.970;2022-11-27T02:57:39;9.00;;;3.97;;
2562;SDS011;1291;51.420;6.970;2022-11-27T03:00:07;8.37;;;3.60;;
2562;SDS011;1291;51.420;6.970;2022-11-27T03:02:34;11.37;;;4.30;;
2562;SDS011;1291;51.420;6.970;2022-11-27T03:05:06;9.30;;;3.90;;
2562;SDS011;1291;51.420;6.970;2022-11-27T03:07:45;6.73;;;4.37;;
2562;SDS011;1291;51.420;6.970;2022-11-27T03:10:26;9.30;;;3.97;;
2562;SDS011;1291;51.420;6.970;2022-11-27T03:12:56;12.57;;;4.73;;
2562;SDS011;1291;51.420;6.970;2022-11-27T03:15:23;8.77;;;4.13;;
2562;SDS011;1291;51.420;6.970;2022-11-27T03:20:51;11.17;;;4.43;;
2562;SDS011;1291;51.420;6.970;2022-11-27T03:23:27;9.97;;;4.03;;
2562;SDS011;1291;51.420;6.970;2022-11-27T03:25:56;9.80;;;3.63;;
2562;SDS011;1291;51.420;6.970;2022-11-27T03:28:24;5.63;;;3.77;;
2562;SDS011;1291;51.420;6.970;2022-11-27T03:30:52;9.50;;;4.33;;
2562;SDS011;1291;51.420;6.970;2022-11-27T03:33:17;10.77;;;4.53;;
2562;SDS011;1291;51.420;6.970;2022-11-27T03:35:43;9.37;;;4.53;;
2562;SDS011;1291;51.420;6.970;2022-11-27T03:38:08;13.97;;;4.53;;
2562;SDS011;1291;51.420;6.970;2022-11-27T03:40:38;11.93;;;4.27;;
2562;SDS011;1291;51.420;6.970;2022-11-27T03:43:20;9.87;;;4.53;;
2562;SDS011;1291;51.420;6.970;2022-11-27T03:45:55;8.00;;;3.87;;
2562;SDS011;1291;51.420;6.970;2022-11-27T03:51:26;8.80;;;4.37;;
2562;SDS011;1291;51.420;6.970;2022-11-27T03:54:02;11.40;;;4.83;;
2562;SDS011;1291;51.420;6.970;2022-11-27T03:59:28;9.60;;;4.73;;
2562;SDS011;1291;51.420;6.970;2022-11-27T04:01:56;9.27;;;4.33;;
2562;SDS011;1291;51.420;6.970;2022-11-27T04:04:21;8.47;;;4.60;;
2562;SDS011;1291;51.420;6.970;2022-11-27T04:06:47;10.23;;;4.73;;
2562;SDS011;1291;51.420;6.970;2022-11-27T04:09:15;12.00;;;4.90;;
2562;SDS011;1291;51.420;6.970;2022-11-27T04:11:40;10.43;;;4.77;;
2562;SDS011;1291;51.420;6.970;2022-11-27T04:14:06;8.70;;;5.00;;
2562;SDS011;1291;51.420;6.970;2022-11-27T04:16:31;9.43;;;4.30;;
2562;SDS011;1291;51.420;6.970;2022-11-27T04:18:56;9.13;;;4.60;;
2562;SDS011;1291;51.420;6.970;2022-11-27T04:21:22;10.63;;;4.97;;
2562;SDS011;1291;51.420;6.970;2022-11-27T04:23:47;10.23;;;5.30;;
2562;SDS011;1291;51.420;6.970;2022-11-27T04:26:12;10.13;;;4.83;;
2562;SDS011;1291;51.420;6.970;2022-11-27T04:28:38;10.83;;;4.80;;
2562;SDS011;1291;51.420;6.970;2022-11-27T04:31:03;9.87;;;4.27;;
2562;SDS011;1291;51.420;6.970;2022-11-27T04:33:29;10.33;;;4.97;;
2562;SDS011;1291;51.420;6.970;2022-11-27T04:35:54;9.80;;;5.00;;
2562;SDS011;1291;51.420;6.970;2022-11-27T04:38:20;8.10;;;4.90;;
2562;SDS011;1291;51.420;6.970;2022-11-27T04:40:46;8.80;;;4.80;;
2562;SDS011;1291;51.420;6.970;2022-11-27T04:43:11;11.77;;;5.20;;
2562;SDS011;1291;51.420;6.970;2022-11-27T04:45:37;14.17;;;5.27;;
2562;SDS011;1291;51.420;6.970;2022-11-27T04:48:02;9.63;;;4.93;;
2562;SDS011;1291;51.420;6.970;2022-11-27T04:50:28;7.67;;;4.83;;
2562;SDS011;1291;51.420;6.970;2022-11-27T04:52:54;19.07;;;5.23;;
2562;SDS011;1291;51.420;6.970;2022-11-27T04:55:22;9.70;;;5.27;;
2562;SDS011;1291;51.420;6.970;2022-11-27T04:57:48;9.10;;;5.23;;
2562;SDS011;1291;51.420;6.970;2022-11-27T05:00:13;11.53;;;4.93;;
2562;SDS011;1291;51.420;6.970;2022-11-27T05:02:39;11.67;;;5.13;;
2562;SDS011;1291;51.420;6.970;2022-11-27T05:05:08;13.00;;;5.47;;
2562;SDS011;1291;51.420;6.970;2022-11-27T05:07:33;9.37;;;5.30;;
2562;SDS011;1291;51.420;6.970;2022-11-27T05:09:58;10.37;;;5.50;;
2562;SDS011;1291;51.420;6.970;2022-11-27T05:12:24;13.80;;;5.53;;
2562;SDS011;1291;51.420;6.970;2022-11-27T05:14:49;9.13;;;4.80;;
2562;SDS011;1291;51.420;6.970;2022-11-27T05:17:14;12.77;;;5.37;;
2562;SDS011;1291;51.420;6.970;2022-11-27T05:19:40;8.07;;;5.70;;
2562;SDS011;1291;51.420;6.970;2022-11-27T05:22:05;7.70;;;5.17;;
2562;SDS011;1291;51.420;6.970;2022-11-27T05:24:31;8.07;;;4.80;;
2562;SDS011;1291;51.420;6.970;2022-11-27T05:26:57;9.70;;;5.30;;
2562;SDS011;1291;51.420;6.970;2022-11-27T05:29:23;11.03;;;5.57;;
2562;SDS011;1291;51.420;6.970;2022-11-27T05:31:48;9.43;;;5.40;;
2562;SDS011;1291;51.420;6.970;2022-11-27T05:34:14;9.20;;;4.67;;
2562;SDS011;1291;51.420;6.970;2022-11-27T05:36:40;7.83;;;4.80;;
2562;SDS011;1291;51.420;6.970;2022-11-27T05:39:06;10.60;;;4.87;;
2562;SDS011;1291;51.420;6.970;2022-11-27T05:41:33;12.80;;;5.43;;
2562;SDS011;1291;51.420;6.970;2022-11-27T05:44:00;9.30;;;5.00;;
2562;SDS011;1291;51.420;6.970;2022-11-27T05:46:25;11.13;;;5.37;;
2562;SDS011;1291;51.420;6.970;2022-11-27T05:48:51;7.93;;;4.50;;
2562;SDS011;1291;51.420;6.970;2022-11-27T05:51:16;10.47;;;5.53;;
2562;SDS011;1291;51.420;6.970;2022-11-27T05:53:42;8.57;;;4.70;;
2562;SDS011;1291;51.420;6.970;2022-11-27T05:56:09;9.57;;;5.00;;
2562;SDS011;1291;51.420;6.970;2022-11-27T05:58:36;9.93;;;4.50;;
2562;SDS011;1291;51.420;6.970;2022-11-27T06:01:03;10.73;;;4.93;;
2562;SDS011;1291;51.420;6.970;2022-11-27T06:03:28;7.43;;;5.10;;
2562;SDS011;1291;51.420;6.970;2022-11-27T06:05:54;9.13;;;4.73;;
2562;SDS011;1291;51.420;6.970;2022-11-27T06:08:19;8.17;;;4.93;;
2562;SDS011;1291;51.420;6.970;2022-11-27T06:10:46;9.17;;;4.90;;
2562;SDS011;1291;51.420;6.970;2022-11-27T06:13:12;11.33;;;5.13;;
2562;SDS011;1291;51.420;6.970;2022-11-27T06:15:38;11.93;;;4.73;;
2562;SDS011;1291;51.420;6.970;2022-11-27T06:18:04;7.93;;;5.10;;
2562;SDS011;1291;51.420;6.970;2022-11-27T06:20:30;10.33;;;4.60;;
2562;SDS011;1291;51.420;6.970;2022-11-27T06:22:55;10.40;;;5.00;;
2562;SDS011;1291;51.420;6.970;2022-11-27T06:25:21;8.07;;;4.50;;
2562;SDS011;1291;51.420;6.970;2022-11-27T06:27:48;9.30;;;4.90;;
2562;SDS011;1291;51.420;6.970;2022-11-27T06:30:13;8.07;;;4.50;;
2562;SDS011;1291;51.420;6.970;2022-11-27T06:32:39;10.20;;;5.33;;
2562;SDS011;1291;51.420;6.970;2022-11-27T06:35:10;9.47;;;5.10;;
2562;SDS011;1291;51.420;6.970;2022-11-27T06:37:39;7.80;;;4.73;;
2562;SDS011;1291;51.420;6.970;2022-11-27T06:40:04;5.50;;;4.40;;
2562;SDS011;1291;51.420;6.970;2022-11-27T06:42:30;12.47;;;4.77;;
2562;SDS011;1291;51.420;6.970;2022-11-27T06:44:56;10.30;;;5.03;;
2562;SDS011;1291;51.420;6.970;2022-11-27T06:47:21;9.67;;;4.73;;
2562;SDS011;1291;51.420;6.970;2022-11-27T06:49:47;8.97;;;4.93;;
2562;SDS011;1291;51.420;6.970;2022-11-27T06:52:12;7.53;;;5.23;;
2562;SDS011;1291;51.420;6.970;2022-11-27T06:54:38;9.20;;;4.73;;
2562;SDS011;1291;51.420;6.970;2022-11-27T06:57:03;7.87;;;4.83;;
2562;SDS011;1291;51.420;6.970;2022-11-27T06:59:28;12.60;;;5.00;;
2562;SDS011;1291;51.420;6.970;2022-11-27T07:01:54;9.40;;;4.67;;
2562;SDS011;1291;51.420;6.970;2022-11-27T07:04:19;8.20;;;5.23;;
2562;SDS011;1291;51.420;6.970;2022-11-27T07:06:45;7.30;;;4.97;;
2562;SDS011;1291;51.420;6.970;2022-11-27T07:09:10;9.67;;;5.50;;
2562;SDS011;1291;51.420;6.970;2022-11-27T07:11:37;7.47;;;4.53;;
2562;SDS011;1291;51.420;6.970;2022-11-27T07:14:03;10.10;;;4.70;;
2562;SDS011;1291;51.420;6.970;2022-11-27T07:16:30;10.50;;;4.83;;
2562;SDS011;1291;51.420;6.970;2022-11-27T07:19:01;7.23;;;4.97;;
2562;SDS011;1291;51.420;6.970;2022-11-27T07:21:30;7.87;;;4.33;;
2562;SDS011;1291;51.420;6.970;2022-11-27T07:23:56;6.57;;;4.10;;
2562;SDS011;1291;51.420;6.970;2022-11-27T07:26:22;8.10;;;4.90;;
2562;SDS011;1291;51.420;6.970;2022-11-27T07:28:49;9.93;;;4.70;;
2562;SDS011;1291;51.420;6.970;2022-11-27T07:31:16;9.60;;;4.70;;
2562;SDS011;1291;51.420;6.970;2022-11-27T07:33:46;8.57;;;4.10;;
2562;SDS011;1291;51.420;6.970;2022-11-27T07:36:14;5.37;;;4.03;;
2562;SDS011;1291;51.420;6.970;2022-11-27T07:38:41;6.50;;;3.67;;
2562;SDS011;1291;51.420;6.970;2022-11-27T07:41:08;6.30;;;4.13;;
2562;SDS011;1291;51.420;6.970;2022-11-27T07:43:33;9.17;;;4.20;;
2562;SDS011;1291;51.420;6.970;2022-11-27T07:46:07;6.03;;;4.10;;
2562;SDS011;1291;51.420;6.970;2022-11-27T07:48:34;6.10;;;3.47;;
2562;SDS011;1291;51.420;6.970;2022-11-27T07:51:00;9.30;;;4.43;;
2562;SDS011;1291;51.420;6.970;2022-11-27T07:53:33;9.77;;;3.63;;
2562;SDS011;1291;51.420;6.970;2022-11-27T07:56:00;6.23;;;3.80;;
2562;SDS011;1291;51.420;6.970;2022-11-27T07:58:25;5.33;;;3.60;;
2562;SDS011;1291;51.420;6.970;2022-11-27T08:00:54;7.60;;;3.67;;
2562;SDS011;1291;51.420;6.970;2022-11-27T08:03:20;10.53;;;4.60;;
2562;SDS011;1291;51.420;6.970;2022-11-27T08:05:45;6.47;;;3.70;;
2562;SDS011;1291;51.420;6.970;2022-11-27T08:08:11;7.80;;;3.50;;
2562;SDS011;1291;51.420;6.970;2022-11-27T08:10:36;9.83;;;4.10;;
2562;SDS011;1291;51.420;6.970;2022-11-27T08:13:03;5.73;;;3.00;;
2562;SDS011;1291;51.420;6.970;2022-11-27T08:15:29;8.40;;;3.47;;
2562;SDS011;1291;51.420;6.970;2022-11-27T08:17:54;7.37;;;3.87;;
2562;SDS011;1291;51.420;6.970;2022-11-27T08:20:19;6.40;;;3.97;;
2562;SDS011;1291;51.420;6.970;2022-11-27T08:22:45;7.23;;;3.57;;
2562;SDS011;1291;51.420;6.970;2022-11-27T08:25:10;8.43;;;3.43;;
2562;SDS011;1291;51.420;6.970;2022-11-27T08:27:36;5.67;;;3.00;;
2562;SDS011;1291;51.420;6.970;2022-11-27T08:30:05;6.13;;;3.50;;
2562;SDS011;1291;51.420;6.970;2022-11-27T08:32:36;4.53;;;2.87;;
2562;SDS011;1291;51.420;6.970;2022-11-27T08:35:03;7.67;;;3.63;;
2562;SDS011;1291;51.420;6.970;2022-11-27T08:37:29;5.47;;;3.40;;
2562;SDS011;1291;51.420;6.970;2022-11-27T08:39:54;5.10;;;3.43;;
2562;SDS011;1291;51.420;6.970;2022-11-27T08:42:20;5.83;;;3.77;;
2562;SDS011;1291;51.420;6.970;2022-11-27T08:44:45;4.20;;;3.10;;
2562;SDS011;1291;51.420;6.970;2022-11-27T08:47:10;5.43;;;4.00;;
2562;SDS011;1291;51.420;6.970;2022-11-27T08:49:36;8.57;;;3.60;;
2562;SDS011;1291;51.420;6.970;2022-11-27T08:52:01;5.37;;;3.23;;
2562;SDS011;1291;51.420;6.970;2022-11-27T08:54:26;6.03;;;3.20;;
2562;SDS011;1291;51.420;6.970;2022-11-27T08:56:52;4.03;;;2.87;;
2562;SDS011;1291;51.420;6.970;2022-11-27T08:59:17;8.13;;;2.70;;
2562;SDS011;1291;51.420;6.970;2022-11-27T09:01:42;5.60;;;3.33;;
2562;SDS011;1291;51.420;6.970;2022-11-27T09:04:11;4.90;;;2.93;;
2562;SDS011;1291;51.420;6.970;2022-11-27T09:06:39;5.10;;;3.70;;
2562;SDS011;1291;51.420;6.970;2022-11-27T09:09:05;6.40;;;2.88;;
2562;SDS011;1291;51.420;6.970;2022-11-27T09:11:30;6.07;;;3.30;;
2562;SDS011;1291;51.420;6.970;2022-11-27T09:13:58;6.03;;;3.07;;
2562;SDS011;1291;51.420;6.970;2022-11-27T09:16:24;5.93;;;3.20;;
2562;SDS011;1291;51.420;6.970;2022-11-27T09:18:50;8.02;;;3.13;;
2562;SDS011;1291;51.420;6.970;2022-11-27T09:21:18;4.25;;;3.13;;
2562;SDS011;1291;51.420;6.970;2022-11-27T09:23:50;5.97;;;2.90;;
2562;SDS011;1291;51.420;6.970;2022-11-27T09:26:16;5.10;;;3.20;;
2562;SDS011;1291;51.420;6.970;2022-11-27T09:28:42;8.20;;;3.20;;
2562;SDS011;1291;51.420;6.970;2022-11-27T09:31:10;5.47;;;3.17;;
2562;SDS011;1291;51.420;6.970;2022-11-27T09:33:38;6.55;;;2.90;;
2562;SDS011;1291;51.420;6.970;2022-11-27T09:36:05;6.28;;;3.05;;
2562;SDS011;1291;51.420;6.970;2022-11-27T09:38:33;6.30;;;3.28;;
2562;SDS011;1291;51.420;6.970;2022-11-27T09:41:02;6.13;;;3.10;;
2562;SDS011;1291;51.420;6.970;2022-11-27T09:43:52;4.32;;;3.00;;
2562;SDS011;1291;51.420;6.970;2022-11-27T09:46:29;7.03;;;3.10;;
2562;SDS011;1291;51.420;6.970;2022-11-27T09:48:57;3.13;;;2.58;;
2562;SDS011;1291;51.420;6.970;2022-11-27T09:51:41;4.32;;;2.85;;
2562;SDS011;1291;51.420;6.970;2022-11-27T09:54:22;5.90;;;3.00;;
2562;SDS011;1291;51.420;6.970;2022-11-27T09:56:52;4.65;;;2.85;;
2562;SDS011;1291;51.420;6.970;2022-11-27T09:59:21;5.65;;;3.47;;
2562;SDS011;1291;51.420;6.970;2022-11-27T10:01:49;5.85;;;3.17;;
2562;SDS011;1291;51.420;6.970;2022-11-27T10:04:15;4.75;;;3.17;;
2562;SDS011;1291;51.420;6.970;2022-11-27T10:07:01;4.10;;;3.00;;
2562;SDS011;1291;51.420;6.970;2022-11-27T10:09:59;3.83;;;3.22;;
2562;SDS011;1291;51.420;6.970;2022-11-27T10:19:02;5.65;;;3.78;;
2562;SDS011;1291;51.420;6.970;2022-11-27T10:26:49;4.15;;;3.50;;
2562;SDS011;1291;51.420;6.970;2022-11-27T10:29:29;8.38;;;3.90;;
2562;SDS011;1291;51.420;6.970;2022-11-27T10:32:18;7.47;;;4.85;;
2562;SDS011;1291;51.420;6.970;2022-11-27T10:34:58;6.05;;;3.72;;
2562;SDS011;1291;51.420;6.970;2022-11-27T10:40:17;8.60;;;4.30;;
2562;SDS011;1291;51.420;6.970;2022-11-27T10:45:23;5.28;;;3.63;;
2562;SDS011;1291;51.420;6.970;2022-11-27T10:48:01;5.15;;;3.20;;
2562;SDS011;1291;51.420;6.970;2022-11-27T10:50:27;5.57;;;3.47;;
2562;SDS011;1291;51.420;6.970;2022-11-27T10:52:56;5.80;;;3.40;;
2562;SDS011;1291;51.420;6.970;2022-11-27T10:55:41;5.72;;;3.60;;
2562;SDS011;1291;51.420;6.970;2022-11-27T11:01:02;5.03;;;3.45;;
2562;SDS011;1291;51.420;6.970;2022-11-27T11:03:30;6.88;;;4.03;;
2562;SDS011;1291;51.420;6.970;2022-11-27T11:05:57;9.48;;;4.57;;
2562;SDS011;1291;51.420;6.970;2022-11-27T11:08:25;7.72;;;3.70;;
2562;SDS011;1291;51.420;6.970;2022-11-27T11:13:24;4.90;;;3.55;;
2562;SDS011;1291;51.420;6.970;2022-11-27T11:18:26;4.43;;;3.33;;
2562;SDS011;1291;51.420;6.970;2022-11-27T11:20:54;6.35;;;3.63;;
2562;SDS011;1291;51.420;6.970;2022-11-27T11:23:27;5.55;;;3.72;;
2562;SDS011;1291;51.420;6.970;2022-11-27T11:25:56;8.30;;;4.57;;
2562;SDS011;1291;51.420;6.970;2022-11-27T11:28:25;5.20;;;3.58;;
2562;SDS011;1291;51.420;6.970;2022-11-27T11:30:52;5.93;;;3.60;;
2562;SDS011;1291;51.420;6.970;2022-11-27T11:33:26;6.53;;;4.15;;
2562;SDS011;1291;51.420;6.970;2022-11-27T11:35:53;5.15;;;3.58;;
2562;SDS011;1291;51.420;6.970;2022-11-27T11:38:25;6.53;;;3.42;;
2562;SDS011;1291;51.420;6.970;2022-11-27T11:40:56;5.80;;;3.75;;
2562;SDS011;1291;51.420;6.970;2022-11-27T11:43:34;5.70;;;3.25;;
2562;SDS011;1291;51.420;6.970;2022-11-27T11:46:04;6.75;;;3.70;;
2562;SDS011;1291;51.420;6.970;2022-11-27T11:48:32;5.43;;;3.00;;
2562;SDS011;1291;51.420;6.970;2022-11-27T11:51:00;5.55;;;3.42;;
2562;SDS011;1291;51.420;6.970;2022-11-27T11:53:36;4.57;;;3.20;;
2562;SDS011;1291;51.420;6.970;2022-11-27T11:58:59;4.75;;;3.05;;
2562;SDS011;1291;51.420;6.970;2022-11-27T12:06:54;7.78;;;2.85;;
2562;SDS011;1291;51.420;6.970;2022-11-27T12:09:26;7.25;;;3.10;;
2562;SDS011;1291;51.420;6.970;2022-11-27T12:16:58;7.07;;;3.10;;
2562;SDS011;1291;51.420;6.970;2022-11-27T12:24:53;5.47;;;2.42;;
2562;SDS011;1291;51.420;6.970;2022-11-27T12:27:47;6.05;;;2.80;;
2562;SDS011;1291;51.420;6.970;2022-11-27T12:36:01;3.25;;;2.42;;
2562;SDS011;1291;51.420;6.970;2022-11-27T12:44:16;4.00;;;2.35;;
2562;SDS011;1291;51.420;6.970;2022-11-27T12:47:23;3.17;;;2.58;;
2562;SDS011;1291;51.420;6.970;2022-11-27T12:49:47;3.13;;;2.45;;
2562;SDS011;1291;51.420;6.970;2022-11-27T12:52:18;5.25;;;2.78;;
2562;SDS011;1291;51.420;6.970;2022-11-27T12:55:00;4.78;;;2.78;;
2562;SDS011;1291;51.420;6.970;2022-11-27T12:57:46;3.78;;;2.30;;
2562;SDS011;1291;51.420;6.970;2022-11-27T13:00:22;5.70;;;2.33;;
2562;SDS011;1291;51.420;6.970;2022-11-27T13:02:55;5.13;;;2.55;;
2562;SDS011;1291;51.420;6.970;2022-11-27T13:05:40;4.43;;;2.38;;
2562;SDS011;1291;51.420;6.970;2022-11-27T13:08:15;4.25;;;3.00;;
2562;SDS011;1291;51.420;6.970;2022-11-27T13:10:49;4.93;;;3.13;;
2562;SDS011;1291;51.420;6.970;2022-11-27T13:13:32;7.35;;;2.70;;
2562;SDS011;1291;51.420;6.970;2022-11-27T13:21:49;3.50;;;2.60;;
2562;SDS011;1291;51.420;6.970;2022-11-27T13:24:17;4.70;;;2.70;;
2562;SDS011;1291;51.420;6.970;2022-11-27T13:29:38;5.43;;;2.70;;
2562;SDS011;1291;51.420;6.970;2022-11-27T13:32:22;2.40;;;2.20;;
2562;SDS011;1291;51.420;6.970;2022-11-27T13:34:58;3.00;;;2.28;;
2562;SDS011;1291;51.420;6.970;2022-11-27T13:37:28;4.72;;;2.50;;
2562;SDS011;1291;51.420;6.970;2022-11-27T13:40:03;4.25;;;2.13;;
2562;SDS011;1291;51.420;6.970;2022-11-27T13:42:34;5.13;;;2.53;;
2562;SDS011;1291;51.420;6.970;2022-11-27T13:45:06;2.85;;;2.40;;
2562;SDS011;1291;51.420;6.970;2022-11-27T13:47:37;7.57;;;2.58;;
2562;SDS011;1291;51.420;6.970;2022-11-27T13:50:09;4.55;;;2.60;;
2562;SDS011;1291;51.420;6.970;2022-11-27T13:52:37;5.82;;;2.95;;
2562;SDS011;1291;51.420;6.970;2022-11-27T13:55:52;5.03;;;2.53;;
2562;SDS011;1291;51.420;6.970;2022-11-27T13:58:26;3.70;;;2.35;;
2562;SDS011;1291;51.420;6.970;2022-11-27T14:01:19;4.13;;;1.88;;
2562;SDS011;1291;51.420;6.970;2022-11-27T14:03:46;4.53;;;2.60;;
2562;SDS011;1291;51.420;6.970;2022-11-27T14:06:20;4.32;;;2.60;;
2562;SDS011;1291;51.420;6.970;2022-11-27T14:08:48;6.00;;;2.70;;
2562;SDS011;1291;51.420;6.970;2022-11-27T14:11:26;3.05;;;2.65;;
2562;SDS011;1291;51.420;6.970;2022-11-27T14:14:16;4.28;;;2.42;;
2562;SDS011;1291;51.420;6.970;2022-11-27T14:16:51;4.40;;;2.60;;
2562;SDS011;1291;51.420;6.970;2022-11-27T14:19:23;4.75;;;2.80;;
2562;SDS011;1291;51.420;6.970;2022-11-27T14:22:30;4.75;;;2.50;;
2562;SDS011;1291;51.420;6.970;2022-11-27T14:25:19;6.40;;;2.72;;
2562;SDS011;1291;51.420;6.970;2022-11-27T14:27:58;4.50;;;2.67;;
2562;SDS011;1291;51.420;6.970;2022-11-27T14:33:23;3.70;;;2.70;;
2562;SDS011;1291;51.420;6.970;2022-11-27T14:35:54;3.95;;;2.47;;
2562;SDS011;1291;51.420;6.970;2022-11-27T14:38:24;5.15;;;2.47;;
2562;SDS011;1291;51.420;6.970;2022-11-27T14:40:52;5.13;;;2.45;;
2562;SDS011;1291;51.420;6.970;2022-11-27T14:43:19;5.20;;;2.85;;
2562;SDS011;1291;51.420;6.970;2022-11-27T14:45:50;5.70;;;2.78;;
2562;SDS011;1291;51.420;6.970;2022-11-27T14:48:19;5.45;;;2.80;;
2562;SDS011;1291;51.420;6.970;2022-11-27T14:50:47;4.68;;;2.60;;
2562;SDS011;1291;51.420;6.970;2022-11-27T14:53:15;4.35;;;2.47;;
2562;SDS011;1291;51.420;6.970;2022-11-27T14:55:42;4.18;;;2.60;;
2562;SDS011;1291;51.420;6.970;2022-11-27T14:58:10;5.22;;;2.95;;
2562;SDS011;1291;51.420;6.970;2022-11-27T15:00:49;5.38;;;2.50;;
2562;SDS011;1291;51.420;6.970;2022-11-27T15:03:19;4.45;;;3.03;;
2562;SDS011;1291;51.420;6.970;2022-11-27T15:06:04;3.58;;;2.40;;
2562;SDS011;1291;51.420;6.970;2022-11-27T15:08:34;3.53;;;2.20;;
2562;SDS011;1291;51.420;6.970;2022-11-27T15:11:02;2.90;;;2.70;;
2562;SDS011;1291;51.420;6.970;2022-11-27T15:13:30;3.15;;;2.72;;
2562;SDS011;1291;51.420;6.970;2022-11-27T15:18:31;5.43;;;2.67;;
2562;SDS011;1291;51.420;6.970;2022-11-27T15:20:59;6.50;;;2.60;;
2562;SDS011;1291;51.420;6.970;2022-11-27T15:23:27;5.35;;;3.00;;
2562;SDS011;1291;51.420;6.970;2022-11-27T15:28:37;5.85;;;2.40;;
2562;SDS011;1291;51.420;6.970;2022-11-27T15:36:32;6.05;;;2.42;;
2562;SDS011;1291;51.420;6.970;2022-11-27T15:39:19;3.40;;;2.67;;
2562;SDS011;1291;51.420;6.970;2022-11-27T15:44:16;3.35;;;2.40;;
2562;SDS011;1291;51.420;6.970;2022-11-27T15:46:42;4.72;;;2.70;;
2562;SDS011;1291;51.420;6.970;2022-11-27T15:49:11;4.45;;;2.42;;
2562;SDS011;1291;51.420;6.970;2022-11-27T15:51:38;3.15;;;2.20;;
2562;SDS011;1291;51.420;6.970;2022-11-27T15:54:04;3.28;;;2.33;;
2562;SDS011;1291;51.420;6.970;2022-11-27T15:56:30;4.10;;;2.50;;
2562;SDS011;1291;51.420;6.970;2022-11-27T15:58:55;6.85;;;2.80;;
2562;SDS011;1291;51.420;6.970;2022-11-27T16:01:21;4.22;;;2.50;;
2562;SDS011;1291;51.420;6.970;2022-11-27T16:03:46;3.15;;;2.70;;
2562;SDS011;1291;51.420;6.970;2022-11-27T16:06:11;4.18;;;2.53;;
2562;SDS011;1291;51.420;6.970;2022-11-27T16:08:37;3.17;;;2.35;;
2562;SDS011;1291;51.420;6.970;2022-11-27T16:11:04;5.13;;;2.53;;
2562;SDS011;1291;51.420;6.970;2022-11-27T16:13:31;5.20;;;2.50;;
2562;SDS011;1291;51.420;6.970;2022-11-27T16:16:00;4.38;;;2.60;;
2562;SDS011;1291;51.420;6.970;2022-11-27T16:18:29;3.17;;;2.50;;
2562;SDS011;1291;51.420;6.970;2022-11-27T16:21:00;5.20;;;2.30;;
2562;SDS011;1291;51.420;6.970;2022-11-27T16:23:30;2.65;;;2.45;;
2562;SDS011;1291;51.420;6.970;2022-11-27T16:25:56;4.28;;;2.78;;
2562;SDS011;1291;51.420;6.970;2022-11-27T16:28:21;2.63;;;1.90;;
2562;SDS011;1291;51.420;6.970;2022-11-27T16:30:46;3.15;;;2.42;;
2562;SDS011;1291;51.420;6.970;2022-11-27T16:33:12;2.67;;;2.35;;
2562;SDS011;1291;51.420;6.970;2022-11-27T16:35:37;2.13;;;1.92;;
2562;SDS011;1291;51.420;6.970;2022-11-27T16:38:02;3.50;;;2.40;;
2562;SDS011;1291;51.420;6.970;2022-11-27T16:40:28;3.83;;;2.33;;
2562;SDS011;1291;51.420;6.970;2022-11-27T16:42:53;3.67;;;2.30;;
2562;SDS011;1291;51.420;6.970;2022-11-27T16:45:19;5.90;;;2.17;;
2562;SDS011;1291;51.420;6.970;2022-11-27T16:47:44;2.42;;;2.05;;
2562;SDS011;1291;51.420;6.970;2022-11-27T16:50:09;4.57;;;2.65;;
2562;SDS011;1291;51.420;6.970;2022-11-27T16:52:35;3.85;;;2.88;;
2562;SDS011;1291;51.420;6.970;2022-11-27T16:55:00;4.50;;;2.53;;
2562;SDS011;1291;51.420;6.970;2022-11-27T16:57:26;5.07;;;3.03;;
2562;SDS011;1291;51.420;6.970;2022-11-27T16:59:52;6.85;;;2.88;;
2562;SDS011;1291;51.420;6.970;2022-11-27T17:02:17;5.28;;;3.08;;
2562;SDS011;1291;51.420;6.970;2022-11-27T17:04:42;4.20;;;2.63;;
2562;SDS011;1291;51.420;6.970;2022-11-27T17:07:08;4.15;;;2.42;;
2562;SDS011;1291;51.420;6.970;2022-11-27T17:09:34;2.67;;;2.40;;
2562;SDS011;1291;51.420;6.970;2022-11-27T17:11:59;4.13;;;3.00;;
2562;SDS011;1291;51.420;6.970;2022-11-27T17:14:24;3.60;;;2.65;;
2562;SDS011;1291;51.420;6.970;2022-11-27T17:16:51;3.50;;;2.85;;
2562;SDS011;1291;51.420;6.970;2022-11-27T17:19:16;4.63;;;3.03;;
2562;SDS011;1291;51.420;6.970;2022-11-27T17:21:42;3.17;;;2.53;;